sensor_id;sensor_type;location;lat;lon;timestamp;temperature;humidity
34572;DHT22;20808;48.974;8.452;2022-09-09T00:02:18;15.40;1.00
34572;DHT22;20808;48.974;8.452;2022-09-09T00:04:52;15.40;1.00
34572;DHT22;20808;48.974;8.452;2022-09-09T00:07:25;15.40;1.00
34572;DHT22;20808;48.974;8.452;2022-09-09T00:10:03;15.40;1.00
34572;DHT22;20808;48.974;8.452;2022-09-09T00:12:34;15.40;1.00
34572;DHT22;20808;48.974;8.452;2022-09-09T00:15:07;15.40;1.00
34572;DHT22;20808;48.974;8.452;2022-09-09T00:17:41;15.40;1.00
34572;DHT22;20808;48.974;8.452;2022-09-09T00:20:12;15.30;1.00
34572;DHT22;20808;48.974;8.452;2022-09-09T00:22:47;15.40;1.00
34572;DHT22;20808;48.974;8.452;2022-09-09T00:25:21;15.50;1.00
34572;DHT22;20808;48.974;8.452;2022-09-09T00:27:50;15.70;1.00
34572;DHT22;20808;48.974;8.452;2022-09-09T00:30:19;15.80;1.00
34572;DHT22;20808;48.974;8.452;2022-09-09T00:32:49;15.80;1.00
34572;DHT22;20808;48.974;8.452;2022-09-09T00:35:18;15.70;1.00
34572;DHT22;20808;48.974;8.452;2022-09-09T00:37:50;15.60;1.00
34572;DHT22;20808;48.974;8.452;2022-09-09T00:40:24;15.60;1.00
34572;DHT22;20808;48.974;8.452;2022-09-09T00:43:00;15.50;1.00
34572;DHT22;20808;48.974;8.452;2022-09-09T00:45:58;15.40;6.90
34572;DHT22;20808;48.974;8.452;2022-09-09T00:48:31;15.30;1.00
34572;DHT22;20808;48.974;8.452;2022-09-09T00:51:07;15.20;19.90
34572;DHT22;20808;48.974;8.452;2022-09-09T00:53:51;15.10;99.90
34572;DHT22;20808;48.974;8.452;2022-09-09T00:56:26;15.20;99.90
34572;DHT22;20808;48.974;8.452;2022-09-09T00:59:00;15.10;99.90
34572;DHT22;20808;48.974;8.452;2022-09-09T01:01:31;15.10;99.90
34572;DHT22;20808;48.974;8.452;2022-09-09T01:03:58;15.20;99.90
34572;DHT22;20808;48.974;8.452;2022-09-09T01:06:30;15.20;99.90
34572;DHT22;20808;48.974;8.452;2022-09-09T01:09:11;15.20;99.90
34572;DHT22;20808;48.974;8.452;2022-09-09T01:11:51;15.30;99.90
34572;DHT22;20808;48.974;8.452;2022-09-09T01:14:30;15.50;42.80
34572;DHT22;20808;48.974;8.452;2022-09-09T01:17:02;15.60;1.00
34572;DHT22;20808;48.974;8.452;2022-09-09T01:19:40;15.80;1.00
34572;DHT22;20808;48.974;8.452;2022-09-09T01:22:15;16.00;99.90
34572;DHT22;20808;48.974;8.452;2022-09-09T01:25:01;16.30;99.90
34572;DHT22;20808;48.974;8.452;2022-09-09T01:27:32;16.60;99.90
34572;DHT22;20808;48.974;8.452;2022-09-09T01:29:59;16.60;1.00
34572;DHT22;20808;48.974;8.452;2022-09-09T01:32:41;16.50;99.90
34572;DHT22;20808;48.974;8.452;2022-09-09T01:35:11;16.40;99.90
34572;DHT22;20808;48.974;8.452;2022-09-09T01:37:38;16.30;99.90
34572;DHT22;20808;48.974;8.452;2022-09-09T01:40:06;16.20;99.90
34572;DHT22;20808;48.974;8.452;2022-09-09T01:42:34;16.00;1.00
34572;DHT22;20808;48.974;8.452;2022-09-09T01:45:01;15.90;1.00
34572;DHT22;20808;48.974;8.452;2022-09-09T01:47:29;15.90;1.00
34572;DHT22;20808;48.974;8.452;2022-09-09T01:49:56;15.80;1.00
34572;DHT22;20808;48.974;8.452;2022-09-09T01:52:23;15.70;1.00
34572;DHT22;20808;48.974;8.452;2022-09-09T01:54:49;15.60;1.00
34572;DHT22;20808;48.974;8.452;2022-09-09T01:57:20;15.60;1.00
34572;DHT22;20808;48.974;8.452;2022-09-09T01:59:59;15.50;1.00
34572;DHT22;20808;48.974;8.452;2022-09-09T02:02:32;15.40;1.00
34572;DHT22;20808;48.974;8.452;2022-09-09T02:05:06;15.40;1.00
34572;DHT22;20808;48.974;8.452;2022-09-09T02:07:39;15.20;1.00
34572;DHT22;20808;48.974;8.452;2022-09-09T02:10:10;15.10;1.00
34572;DHT22;20808;48.974;8.452;2022-09-09T02:12:40;14.80;1.00
34572;DHT22;20808;48.974;8.452;2022-09-09T02:15:16;14.70;1.00
34572;DHT22;20808;48.974;8.452;2022-09-09T02:17:46;14.60;71.40
34572;DHT22;20808;48.974;8.452;2022-09-09T02:20:14;14.60;93.30
34572;DHT22;20808;48.974;8.452;2022-09-09T02:22:44;14.70;91.00
34572;DHT22;20808;48.974;8.452;2022-09-09T02:25:15;14.70;5.30
34572;DHT22;20808;48.974;8.452;2022-09-09T02:27:45;14.70;1.00
34572;DHT22;20808;48.974;8.452;2022-09-09T02:30:14;14.90;1.00
34572;DHT22;20808;48.974;8.452;2022-09-09T02:32:43;14.90;1.00
34572;DHT22;20808;48.974;8.452;2022-09-09T02:35:13;14.90;1.00
34572;DHT22;20808;48.974;8.452;2022-09-09T02:37:42;14.90;1.00
34572;DHT22;20808;48.974;8.452;2022-09-09T02:40:11;14.90;1.00
34572;DHT22;20808;48.974;8.452;2022-09-09T02:42:39;14.90;1.00
34572;DHT22;20808;48.974;8.452;2022-09-09T02:45:08;15.00;1.00
34572;DHT22;20808;48.974;8.452;2022-09-09T02:47:40;15.10;1.00
34572;DHT22;20808;48.974;8.452;2022-09-09T02:50:13;15.00;1.00
34572;DHT22;20808;48.974;8.452;2022-09-09T02:52:50;14.90;1.00
34572;DHT22;20808;48.974;8.452;2022-09-09T02:55:24;14.80;1.00
34572;DHT22;20808;48.974;8.452;2022-09-09T02:57:55;14.80;1.00
34572;DHT22;20808;48.974;8.452;2022-09-09T03:00:24;14.70;1.00
34572;DHT22;20808;48.974;8.452;2022-09-09T03:02:52;14.70;1.00
34572;DHT22;20808;48.974;8.452;2022-09-09T03:05:20;14.60;1.00
34572;DHT22;20808;48.974;8.452;2022-09-09T03:07:47;14.60;1.00
34572;DHT22;20808;48.974;8.452;2022-09-09T03:10:15;14.50;1.00
34572;DHT22;20808;48.974;8.452;2022-09-09T03:12:41;14.40;1.00
34572;DHT22;20808;48.974;8.452;2022-09-09T03:15:09;14.40;1.00
34572;DHT22;20808;48.974;8.452;2022-09-09T03:17:36;14.40;1.00
34572;DHT22;20808;48.974;8.452;2022-09-09T03:20:05;14.40;1.00
34572;DHT22;20808;48.974;8.452;2022-09-09T03:22:32;14.40;1.00
34572;DHT22;20808;48.974;8.452;2022-09-09T03:24:59;14.50;1.00
34572;DHT22;20808;48.974;8.452;2022-09-09T03:27:27;14.50;1.00
34572;DHT22;20808;48.974;8.452;2022-09-09T03:29:54;14.60;1.00
34572;DHT22;20808;48.974;8.452;2022-09-09T03:32:21;14.60;1.00
34572;DHT22;20808;48.974;8.452;2022-09-09T03:34:49;14.60;1.00
34572;DHT22;20808;48.974;8.452;2022-09-09T03:37:17;14.30;1.00
34572;DHT22;20808;48.974;8.452;2022-09-09T03:39:44;14.00;1.00
34572;DHT22;20808;48.974;8.452;2022-09-09T03:42:12;13.90;1.00
34572;DHT22;20808;48.974;8.452;2022-09-09T03:44:44;13.90;69.40
34572;DHT22;20808;48.974;8.452;2022-09-09T03:47:11;13.90;99.90
34572;DHT22;20808;48.974;8.452;2022-09-09T03:49:38;13.90;96.40
34572;DHT22;20808;48.974;8.452;2022-09-09T03:52:05;14.00;99.50
34572;DHT22;20808;48.974;8.452;2022-09-09T03:54:33;14.00;91.80
34572;DHT22;20808;48.974;8.452;2022-09-09T03:57:00;14.00;99.20
34572;DHT22;20808;48.974;8.452;2022-09-09T03:59:27;14.20;93.50
34572;DHT22;20808;48.974;8.452;2022-09-09T04:01:54;14.30;92.30
34572;DHT22;20808;48.974;8.452;2022-09-09T04:04:22;14.30;93.80
34572;DHT22;20808;48.974;8.452;2022-09-09T04:06:49;14.30;49.50
34572;DHT22;20808;48.974;8.452;2022-09-09T04:09:16;14.50;11.50
34572;DHT22;20808;48.974;8.452;2022-09-09T04:11:44;14.50;1.00
34572;DHT22;20808;48.974;8.452;2022-09-09T04:14:11;14.60;1.00
34572;DHT22;20808;48.974;8.452;2022-09-09T04:16:38;14.60;1.00
34572;DHT22;20808;48.974;8.452;2022-09-09T04:19:10;14.70;1.00
34572;DHT22;20808;48.974;8.452;2022-09-09T04:21:38;14.70;1.00
34572;DHT22;20808;48.974;8.452;2022-09-09T04:24:06;14.70;1.00
34572;DHT22;20808;48.974;8.452;2022-09-09T04:26:34;14.80;1.00
34572;DHT22;20808;48.974;8.452;2022-09-09T04:29:03;14.80;1.00
34572;DHT22;20808;48.974;8.452;2022-09-09T04:31:32;14.90;1.00
34572;DHT22;20808;48.974;8.452;2022-09-09T04:33:59;14.90;1.00
34572;DHT22;20808;48.974;8.452;2022-09-09T04:36:30;14.90;1.00
34572;DHT22;20808;48.974;8.452;2022-09-09T04:38:58;14.90;1.00
34572;DHT22;20808;48.974;8.452;2022-09-09T04:41:25;14.90;1.00
34572;DHT22;20808;48.974;8.452;2022-09-09T04:43:52;14.90;1.00
34572;DHT22;20808;48.974;8.452;2022-09-09T04:46:20;14.90;1.00
34572;DHT22;20808;48.974;8.452;2022-09-09T04:48:48;14.80;1.00
34572;DHT22;20808;48.974;8.452;2022-09-09T04:51:16;15.00;1.00
34572;DHT22;20808;48.974;8.452;2022-09-09T04:53:42;15.00;1.00
34572;DHT22;20808;48.974;8.452;2022-09-09T04:56:11;15.00;1.00
34572;DHT22;20808;48.974;8.452;2022-09-09T04:58:39;15.10;1.00
34572;DHT22;20808;48.974;8.452;2022-09-09T05:01:08;15.30;99.90
34572;DHT22;20808;48.974;8.452;2022-09-09T05:03:37;15.40;99.90
34572;DHT22;20808;48.974;8.452;2022-09-09T05:06:05;15.50;99.90
34572;DHT22;20808;48.974;8.452;2022-09-09T05:08:34;15.50;99.90
34572;DHT22;20808;48.974;8.452;2022-09-09T05:11:01;15.50;99.90
34572;DHT22;20808;48.974;8.452;2022-09-09T05:13:28;15.50;99.90
34572;DHT22;20808;48.974;8.452;2022-09-09T05:15:57;15.50;24.50
34572;DHT22;20808;48.974;8.452;2022-09-09T05:18:24;15.40;24.40
34572;DHT22;20808;48.974;8.452;2022-09-09T05:20:52;15.40;99.90
34572;DHT22;20808;48.974;8.452;2022-09-09T05:23:19;15.40;99.90
34572;DHT22;20808;48.974;8.452;2022-09-09T05:25:54;15.30;1.00
34572;DHT22;20808;48.974;8.452;2022-09-09T05:28:22;15.40;99.90
34572;DHT22;20808;48.974;8.452;2022-09-09T05:30:56;15.40;1.00
34572;DHT22;20808;48.974;8.452;2022-09-09T05:33:23;15.40;99.90
34572;DHT22;20808;48.974;8.452;2022-09-09T05:35:57;15.50;99.90
34572;DHT22;20808;48.974;8.452;2022-09-09T05:38:23;15.60;99.90
34572;DHT22;20808;48.974;8.452;2022-09-09T05:40:51;15.70;99.90
34572;DHT22;20808;48.974;8.452;2022-09-09T05:43:17;15.80;1.00
34572;DHT22;20808;48.974;8.452;2022-09-09T05:45:45;15.90;1.00
34572;DHT22;20808;48.974;8.452;2022-09-09T05:48:13;16.00;1.00
34572;DHT22;20808;48.974;8.452;2022-09-09T05:50:40;16.20;1.00
34572;DHT22;20808;48.974;8.452;2022-09-09T05:53:09;16.30;1.00
34572;DHT22;20808;48.974;8.452;2022-09-09T05:55:36;16.50;99.90
34572;DHT22;20808;48.974;8.452;2022-09-09T05:58:03;16.60;1.00
34572;DHT22;20808;48.974;8.452;2022-09-09T06:00:30;16.70;99.90
34572;DHT22;20808;48.974;8.452;2022-09-09T06:02:57;17.00;1.00
34572;DHT22;20808;48.974;8.452;2022-09-09T06:05:24;17.30;1.00
34572;DHT22;20808;48.974;8.452;2022-09-09T06:07:52;17.50;61.60
34572;DHT22;20808;48.974;8.452;2022-09-09T06:10:21;17.80;1.00
34572;DHT22;20808;48.974;8.452;2022-09-09T06:12:48;17.90;1.00
34572;DHT22;20808;48.974;8.452;2022-09-09T06:15:15;18.00;1.00
34572;DHT22;20808;48.974;8.452;2022-09-09T06:17:42;18.10;1.00
34572;DHT22;20808;48.974;8.452;2022-09-09T06:20:11;18.10;1.00
34572;DHT22;20808;48.974;8.452;2022-09-09T06:22:39;18.10;1.00
34572;DHT22;20808;48.974;8.452;2022-09-09T06:25:08;18.10;1.00
34572;DHT22;20808;48.974;8.452;2022-09-09T06:27:36;18.10;1.00
34572;DHT22;20808;48.974;8.452;2022-09-09T06:30:03;18.20;1.00
34572;DHT22;20808;48.974;8.452;2022-09-09T06:32:30;18.10;1.00
34572;DHT22;20808;48.974;8.452;2022-09-09T06:35:00;18.10;1.00
34572;DHT22;20808;48.974;8.452;2022-09-09T06:37:27;18.20;1.00
34572;DHT22;20808;48.974;8.452;2022-09-09T06:39:54;18.30;1.00
34572;DHT22;20808;48.974;8.452;2022-09-09T06:42:21;18.30;1.00
34572;DHT22;20808;48.974;8.452;2022-09-09T06:44:49;18.40;1.00
34572;DHT22;20808;48.974;8.452;2022-09-09T06:47:16;18.50;1.00
34572;DHT22;20808;48.974;8.452;2022-09-09T06:49:43;18.60;99.90
34572;DHT22;20808;48.974;8.452;2022-09-09T06:52:10;18.80;99.90
34572;DHT22;20808;48.974;8.452;2022-09-09T06:54:37;18.90;99.90
34572;DHT22;20808;48.974;8.452;2022-09-09T06:57:04;19.00;99.90
34572;DHT22;20808;48.974;8.452;2022-09-09T06:59:32;18.90;99.90
34572;DHT22;20808;48.974;8.452;2022-09-09T07:02:00;18.90;99.90
34572;DHT22;20808;48.974;8.452;2022-09-09T07:04:27;18.80;99.90
34572;DHT22;20808;48.974;8.452;2022-09-09T07:06:54;18.90;99.90
34572;DHT22;20808;48.974;8.452;2022-09-09T07:09:20;19.10;99.90
34572;DHT22;20808;48.974;8.452;2022-09-09T07:11:49;19.40;99.90
34572;DHT22;20808;48.974;8.452;2022-09-09T07:14:17;19.60;99.90
34572;DHT22;20808;48.974;8.452;2022-09-09T07:16:44;20.10;99.90
34572;DHT22;20808;48.974;8.452;2022-09-09T07:19:13;20.30;63.90
34572;DHT22;20808;48.974;8.452;2022-09-09T07:21:40;20.20;41.00
34572;DHT22;20808;48.974;8.452;2022-09-09T07:24:07;20.00;53.90
34572;DHT22;20808;48.974;8.452;2022-09-09T07:26:36;20.00;33.50
34572;DHT22;20808;48.974;8.452;2022-09-09T07:29:03;19.60;71.50
34572;DHT22;20808;48.974;8.452;2022-09-09T07:31:32;19.40;99.90
34572;DHT22;20808;48.974;8.452;2022-09-09T07:34:00;19.50;99.90
34572;DHT22;20808;48.974;8.452;2022-09-09T07:36:30;19.60;99.90
34572;DHT22;20808;48.974;8.452;2022-09-09T07:38:59;19.90;99.90
34572;DHT22;20808;48.974;8.452;2022-09-09T07:41:28;20.30;99.90
34572;DHT22;20808;48.974;8.452;2022-09-09T07:43:56;20.70;99.90
34572;DHT22;20808;48.974;8.452;2022-09-09T07:46:25;20.80;99.90
34572;DHT22;20808;48.974;8.452;2022-09-09T07:48:53;21.00;99.90
34572;DHT22;20808;48.974;8.452;2022-09-09T07:51:23;21.30;65.80
34572;DHT22;20808;48.974;8.452;2022-09-09T07:53:54;21.50;19.20
34572;DHT22;20808;48.974;8.452;2022-09-09T07:56:23;21.60;1.00
34572;DHT22;20808;48.974;8.452;2022-09-09T07:58:51;22.00;1.00
34572;DHT22;20808;48.974;8.452;2022-09-09T08:01:21;22.70;1.00
34572;DHT22;20808;48.974;8.452;2022-09-09T08:03:53;23.20;1.00
34572;DHT22;20808;48.974;8.452;2022-09-09T08:06:20;23.80;1.00
34572;DHT22;20808;48.974;8.452;2022-09-09T08:08:50;23.80;1.00
34572;DHT22;20808;48.974;8.452;2022-09-09T08:11:19;23.30;1.00
34572;DHT22;20808;48.974;8.452;2022-09-09T08:13:45;22.70;1.00
34572;DHT22;20808;48.974;8.452;2022-09-09T08:16:14;22.20;1.00
34572;DHT22;20808;48.974;8.452;2022-09-09T08:18:41;22.30;1.00
34572;DHT22;20808;48.974;8.452;2022-09-09T08:21:12;22.60;1.00
34572;DHT22;20808;48.974;8.452;2022-09-09T08:23:39;22.70;1.00
34572;DHT22;20808;48.974;8.452;2022-09-09T08:26:09;22.70;1.00
34572;DHT22;20808;48.974;8.452;2022-09-09T08:28:38;22.60;1.00
34572;DHT22;20808;48.974;8.452;2022-09-09T08:31:07;21.90;1.00
34572;DHT22;20808;48.974;8.452;2022-09-09T08:33:34;21.30;1.00
34572;DHT22;20808;48.974;8.452;2022-09-09T08:36:04;20.80;13.80
34572;DHT22;20808;48.974;8.452;2022-09-09T08:38:31;19.90;1.00
34572;DHT22;20808;48.974;8.452;2022-09-09T08:43:48;18.10;99.90
34572;DHT22;20808;48.974;8.452;2022-09-09T08:46:21;17.70;1.00
34572;DHT22;20808;48.974;8.452;2022-09-09T08:48:57;17.60;99.90
34572;DHT22;20808;48.974;8.452;2022-09-09T08:51:26;17.80;6.90
34572;DHT22;20808;48.974;8.452;2022-09-09T08:53:54;17.90;1.00
34572;DHT22;20808;48.974;8.452;2022-09-09T08:56:24;18.20;1.00
34572;DHT22;20808;48.974;8.452;2022-09-09T08:58:55;18.40;1.00
34572;DHT22;20808;48.974;8.452;2022-09-09T09:01:34;18.50;1.00
34572;DHT22;20808;48.974;8.452;2022-09-09T09:04:11;18.60;1.00
34572;DHT22;20808;48.974;8.452;2022-09-09T09:06:48;18.60;1.00
34572;DHT22;20808;48.974;8.452;2022-09-09T09:09:22;18.70;1.00
34572;DHT22;20808;48.974;8.452;2022-09-09T09:11:54;18.60;1.00
34572;DHT22;20808;48.974;8.452;2022-09-09T09:14:24;18.70;99.90
34572;DHT22;20808;48.974;8.452;2022-09-09T09:16:54;18.80;1.00
34572;DHT22;20808;48.974;8.452;2022-09-09T09:19:23;19.00;1.00
34572;DHT22;20808;48.974;8.452;2022-09-09T09:21:56;19.10;99.90
34572;DHT22;20808;48.974;8.452;2022-09-09T09:24:29;19.40;1.00
34572;DHT22;20808;48.974;8.452;2022-09-09T09:27:00;19.30;99.90
34572;DHT22;20808;48.974;8.452;2022-09-09T09:29:29;19.10;1.00
34572;DHT22;20808;48.974;8.452;2022-09-09T09:31:59;19.10;99.90
34572;DHT22;20808;48.974;8.452;2022-09-09T09:34:28;19.10;99.90
34572;DHT22;20808;48.974;8.452;2022-09-09T09:36:56;19.20;1.00
34572;DHT22;20808;48.974;8.452;2022-09-09T09:39:26;19.40;99.90
34572;DHT22;20808;48.974;8.452;2022-09-09T09:41:53;19.70;99.90
34572;DHT22;20808;48.974;8.452;2022-09-09T09:44:25;20.10;1.00
34572;DHT22;20808;48.974;8.452;2022-09-09T09:47:05;21.10;99.90
34572;DHT22;20808;48.974;8.452;2022-09-09T09:49:33;21.80;99.90
34572;DHT22;20808;48.974;8.452;2022-09-09T09:52:01;21.90;99.90
34572;DHT22;20808;48.974;8.452;2022-09-09T09:54:29;22.40;34.30
34572;DHT22;20808;48.974;8.452;2022-09-09T09:57:06;22.60;19.60
34572;DHT22;20808;48.974;8.452;2022-09-09T09:59:35;23.40;1.00
34572;DHT22;20808;48.974;8.452;2022-09-09T10:02:18;23.60;1.00
34572;DHT22;20808;48.974;8.452;2022-09-09T10:04:45;24.20;1.00
34572;DHT22;20808;48.974;8.452;2022-09-09T10:07:15;24.50;1.00
34572;DHT22;20808;48.974;8.452;2022-09-09T10:09:43;24.80;1.00
34572;DHT22;20808;48.974;8.452;2022-09-09T10:12:18;24.70;1.00
34572;DHT22;20808;48.974;8.452;2022-09-09T10:14:54;25.20;1.00
34572;DHT22;20808;48.974;8.452;2022-09-09T10:17:32;25.30;1.00
34572;DHT22;20808;48.974;8.452;2022-09-09T10:20:21;25.30;1.00
34572;DHT22;20808;48.974;8.452;2022-09-09T10:22:54;24.10;1.00
34572;DHT22;20808;48.974;8.452;2022-09-09T10:25:36;23.30;1.00
34572;DHT22;20808;48.974;8.452;2022-09-09T10:28:30;22.70;1.00
34572;DHT22;20808;48.974;8.452;2022-09-09T10:31:09;22.40;1.00
34572;DHT22;20808;48.974;8.452;2022-09-09T10:33:44;22.70;1.00
34572;DHT22;20808;48.974;8.452;2022-09-09T10:36:19;22.70;1.00
34572;DHT22;20808;48.974;8.452;2022-09-09T10:38:48;22.40;1.00
34572;DHT22;20808;48.974;8.452;2022-09-09T10:41:19;22.70;1.00
34572;DHT22;20808;48.974;8.452;2022-09-09T10:44:04;23.00;1.00
34572;DHT22;20808;48.974;8.452;2022-09-09T10:46:40;23.30;1.00
34572;DHT22;20808;48.974;8.452;2022-09-09T10:49:20;23.10;1.00
34572;DHT22;20808;48.974;8.452;2022-09-09T10:51:55;22.30;1.00
34572;DHT22;20808;48.974;8.452;2022-09-09T10:54:38;22.40;1.00
34572;DHT22;20808;48.974;8.452;2022-09-09T10:57:10;22.40;1.00
34572;DHT22;20808;48.974;8.452;2022-09-09T10:59:42;22.20;1.00
34572;DHT22;20808;48.974;8.452;2022-09-09T11:02:15;22.60;1.00
34572;DHT22;20808;48.974;8.452;2022-09-09T11:04:50;23.00;1.00
34572;DHT22;20808;48.974;8.452;2022-09-09T11:07:26;23.10;1.00
34572;DHT22;20808;48.974;8.452;2022-09-09T11:09:59;23.30;1.00
34572;DHT22;20808;48.974;8.452;2022-09-09T11:12:30;22.70;1.00
34572;DHT22;20808;48.974;8.452;2022-09-09T11:15:02;22.20;1.00
34572;DHT22;20808;48.974;8.452;2022-09-09T11:17:36;23.20;1.00
34572;DHT22;20808;48.974;8.452;2022-09-09T11:20:12;24.60;1.00
34572;DHT22;20808;48.974;8.452;2022-09-09T11:22:42;25.40;1.00
34572;DHT22;20808;48.974;8.452;2022-09-09T11:25:15;26.60;1.00
34572;DHT22;20808;48.974;8.452;2022-09-09T11:27:49;26.40;1.00
34572;DHT22;20808;48.974;8.452;2022-09-09T11:30:21;24.60;1.00
34572;DHT22;20808;48.974;8.452;2022-09-09T11:33:16;23.40;1.00
34572;DHT22;20808;48.974;8.452;2022-09-09T11:36:01;23.10;1.00
34572;DHT22;20808;48.974;8.452;2022-09-09T11:38:38;22.40;1.00
34572;DHT22;20808;48.974;8.452;2022-09-09T11:41:09;22.40;1.00
34572;DHT22;20808;48.974;8.452;2022-09-09T11:43:41;22.70;1.00
34572;DHT22;20808;48.974;8.452;2022-09-09T11:46:09;23.50;1.00
34572;DHT22;20808;48.974;8.452;2022-09-09T11:48:38;23.50;1.00
34572;DHT22;20808;48.974;8.452;2022-09-09T11:51:25;23.50;1.00
34572;DHT22;20808;48.974;8.452;2022-09-09T11:53:54;22.80;1.00
34572;DHT22;20808;48.974;8.452;2022-09-09T11:56:27;22.60;1.00
34572;DHT22;20808;48.974;8.452;2022-09-09T11:58:57;23.30;1.00
34572;DHT22;20808;48.974;8.452;2022-09-09T12:01:37;26.00;1.00
34572;DHT22;20808;48.974;8.452;2022-09-09T12:04:27;28.20;1.00
34572;DHT22;20808;48.974;8.452;2022-09-09T12:06:59;27.90;1.00
34572;DHT22;20808;48.974;8.452;2022-09-09T12:09:43;28.90;1.00
34572;DHT22;20808;48.974;8.452;2022-09-09T12:12:38;27.60;1.00
34572;DHT22;20808;48.974;8.452;2022-09-09T12:15:24;27.10;1.00
34572;DHT22;20808;48.974;8.452;2022-09-09T12:17:54;27.90;1.00
34572;DHT22;20808;48.974;8.452;2022-09-09T12:20:23;28.20;1.00
34572;DHT22;20808;48.974;8.452;2022-09-09T12:23:10;27.90;1.00
34572;DHT22;20808;48.974;8.452;2022-09-09T12:25:56;25.80;1.00
34572;DHT22;20808;48.974;8.452;2022-09-09T12:28:27;24.10;1.00
34572;DHT22;20808;48.974;8.452;2022-09-09T12:31:05;23.70;1.00
34572;DHT22;20808;48.974;8.452;2022-09-09T12:33:35;24.20;1.00
34572;DHT22;20808;48.974;8.452;2022-09-09T12:36:03;23.50;1.00
34572;DHT22;20808;48.974;8.452;2022-09-09T12:38:36;23.80;1.00
34572;DHT22;20808;48.974;8.452;2022-09-09T12:41:03;24.90;1.00
34572;DHT22;20808;48.974;8.452;2022-09-09T12:43:30;25.80;1.00
34572;DHT22;20808;48.974;8.452;2022-09-09T12:46:00;26.10;1.00
34572;DHT22;20808;48.974;8.452;2022-09-09T12:48:32;25.40;1.00
34572;DHT22;20808;48.974;8.452;2022-09-09T12:51:00;23.60;1.00
34572;DHT22;20808;48.974;8.452;2022-09-09T12:53:31;22.50;1.00
34572;DHT22;20808;48.974;8.452;2022-09-09T12:56:03;21.90;1.00
34572;DHT22;20808;48.974;8.452;2022-09-09T12:58:30;20.90;1.00
34572;DHT22;20808;48.974;8.452;2022-09-09T13:00:59;19.50;90.20
34572;DHT22;20808;48.974;8.452;2022-09-09T13:03:30;18.90;99.90
34572;DHT22;20808;48.974;8.452;2022-09-09T13:05:58;19.30;1.00
34572;DHT22;20808;48.974;8.452;2022-09-09T13:08:26;19.70;1.00
34572;DHT22;20808;48.974;8.452;2022-09-09T13:10:55;20.10;99.90
34572;DHT22;20808;48.974;8.452;2022-09-09T13:13:27;21.10;99.90
34572;DHT22;20808;48.974;8.452;2022-09-09T13:15:57;21.10;99.90
34572;DHT22;20808;48.974;8.452;2022-09-09T13:18:28;20.70;99.90
34572;DHT22;20808;48.974;8.452;2022-09-09T13:20:56;20.00;1.00
34572;DHT22;20808;48.974;8.452;2022-09-09T13:23:27;19.70;1.00
34572;DHT22;20808;48.974;8.452;2022-09-09T13:25:56;19.30;1.00
34572;DHT22;20808;48.974;8.452;2022-09-09T13:28:26;18.90;99.90
34572;DHT22;20808;48.974;8.452;2022-09-09T13:30:57;18.70;1.00
34572;DHT22;20808;48.974;8.452;2022-09-09T13:33:32;18.50;1.00
34572;DHT22;20808;48.974;8.452;2022-09-09T13:36:02;18.50;1.00
34572;DHT22;20808;48.974;8.452;2022-09-09T13:38:31;19.30;1.00
34572;DHT22;20808;48.974;8.452;2022-09-09T13:40:59;20.60;1.00
34572;DHT22;20808;48.974;8.452;2022-09-09T13:43:34;21.30;99.90
34572;DHT22;20808;48.974;8.452;2022-09-09T13:46:03;21.50;99.90
34572;DHT22;20808;48.974;8.452;2022-09-09T13:48:30;21.60;99.90
34572;DHT22;20808;48.974;8.452;2022-09-09T13:50:59;21.00;99.90
34572;DHT22;20808;48.974;8.452;2022-09-09T13:53:27;20.40;99.90
34572;DHT22;20808;48.974;8.452;2022-09-09T13:55:54;20.20;1.00
34572;DHT22;20808;48.974;8.452;2022-09-09T13:58:22;20.10;1.00
34572;DHT22;20808;48.974;8.452;2022-09-09T14:00:52;21.10;99.90
34572;DHT22;20808;48.974;8.452;2022-09-09T14:03:20;22.70;99.90
34572;DHT22;20808;48.974;8.452;2022-09-09T14:05:47;23.60;1.00
34572;DHT22;20808;48.974;8.452;2022-09-09T14:08:25;24.70;1.00
34572;DHT22;20808;48.974;8.452;2022-09-09T14:10:53;25.90;1.00
34572;DHT22;20808;48.974;8.452;2022-09-09T14:13:23;26.50;1.00
34572;DHT22;20808;48.974;8.452;2022-09-09T14:15:52;26.60;1.00
34572;DHT22;20808;48.974;8.452;2022-09-09T14:18:19;27.20;1.00
34572;DHT22;20808;48.974;8.452;2022-09-09T14:20:47;27.00;1.00
34572;DHT22;20808;48.974;8.452;2022-09-09T14:23:15;26.70;1.00
34572;DHT22;20808;48.974;8.452;2022-09-09T14:25:42;25.70;1.00
34572;DHT22;20808;48.974;8.452;2022-09-09T14:28:10;24.60;1.00
34572;DHT22;20808;48.974;8.452;2022-09-09T14:30:39;23.40;1.00
34572;DHT22;20808;48.974;8.452;2022-09-09T14:33:10;23.10;1.00
34572;DHT22;20808;48.974;8.452;2022-09-09T14:35:37;23.50;1.00
34572;DHT22;20808;48.974;8.452;2022-09-09T14:38:06;23.90;1.00
34572;DHT22;20808;48.974;8.452;2022-09-09T14:40:34;24.20;1.00
34572;DHT22;20808;48.974;8.452;2022-09-09T14:43:01;24.30;1.00
34572;DHT22;20808;48.974;8.452;2022-09-09T14:45:28;23.70;1.00
34572;DHT22;20808;48.974;8.452;2022-09-09T14:47:55;23.10;1.00
34572;DHT22;20808;48.974;8.452;2022-09-09T14:50:24;22.50;1.00
34572;DHT22;20808;48.974;8.452;2022-09-09T14:52:50;22.00;1.00
34572;DHT22;20808;48.974;8.452;2022-09-09T14:55:17;21.50;1.00
34572;DHT22;20808;48.974;8.452;2022-09-09T14:57:44;21.30;1.00
34572;DHT22;20808;48.974;8.452;2022-09-09T15:00:12;20.90;99.90
34572;DHT22;20808;48.974;8.452;2022-09-09T15:02:39;20.10;1.00
34572;DHT22;20808;48.974;8.452;2022-09-09T15:05:06;19.40;1.00
34572;DHT22;20808;48.974;8.452;2022-09-09T15:07:34;18.80;99.90
34572;DHT22;20808;48.974;8.452;2022-09-09T15:10:02;18.30;99.90
34572;DHT22;20808;48.974;8.452;2022-09-09T15:12:29;18.10;1.00
34572;DHT22;20808;48.974;8.452;2022-09-09T15:14:57;17.90;1.00
34572;DHT22;20808;48.974;8.452;2022-09-09T15:17:23;17.90;1.00
34572;DHT22;20808;48.974;8.452;2022-09-09T15:19:53;17.90;1.00
34572;DHT22;20808;48.974;8.452;2022-09-09T15:22:20;18.00;99.90
34572;DHT22;20808;48.974;8.452;2022-09-09T15:24:48;18.10;1.00
34572;DHT22;20808;48.974;8.452;2022-09-09T15:27:15;18.50;1.00
34572;DHT22;20808;48.974;8.452;2022-09-09T15:29:43;18.90;1.00
34572;DHT22;20808;48.974;8.452;2022-09-09T15:32:10;19.20;1.00
34572;DHT22;20808;48.974;8.452;2022-09-09T15:34:37;19.30;31.60
34572;DHT22;20808;48.974;8.452;2022-09-09T15:37:04;19.50;1.00
34572;DHT22;20808;48.974;8.452;2022-09-09T15:39:32;19.70;44.70
34572;DHT22;20808;48.974;8.452;2022-09-09T15:42:03;19.70;99.90
34572;DHT22;20808;48.974;8.452;2022-09-09T15:44:31;19.70;99.90
34572;DHT22;20808;48.974;8.452;2022-09-09T15:47:04;19.60;99.90
34572;DHT22;20808;48.974;8.452;2022-09-09T15:49:31;19.70;99.90
34572;DHT22;20808;48.974;8.452;2022-09-09T15:51:59;19.70;99.90
34572;DHT22;20808;48.974;8.452;2022-09-09T15:54:27;19.80;99.90
34572;DHT22;20808;48.974;8.452;2022-09-09T15:57:00;19.70;99.90
34572;DHT22;20808;48.974;8.452;2022-09-09T15:59:30;19.60;99.90
34572;DHT22;20808;48.974;8.452;2022-09-09T16:01:57;19.50;99.90
34572;DHT22;20808;48.974;8.452;2022-09-09T16:04:25;19.40;99.90
34572;DHT22;20808;48.974;8.452;2022-09-09T16:06:56;19.40;99.90